KJOT/JOT METAR and TAF weather

Enter ICAO airport designator
Station Type Date Time Source
KJOT METAR 2019/02/23 22:55 UTC NOAA

KJOT 232255Z AUTO 11008KT 1 1/2SM RA OVC004 05/05 A2967 RMK AO2 P0004 T00470047


Station Type Date Time Source
KJOT Decoded METAR 2019/02/23 22:55 UTC NOAA

Joliet, Joliet Regional Airport, IL, United States (KJOT) 41-31-05N 088-10-31W
Feb 23, 2019 - 05:55 PM EST / 2019.02.23 2255 UTC
Wind: from the ESE (110 degrees) at 9 MPH (8 KT):0
Visibility: 1 1/2 mile(s):0
Sky conditions: overcast
Weather: rain
Precipitation last hour: 0.04 inches
Temperature: 40.5 F (4.7 C)
Dew Point: 40.5 F (4.7 C)
Relative Humidity: 100%
Pressure (altimeter): 29.67 in. Hg (1004 hPa)
ob: KJOT 232255Z AUTO 11008KT 1 1/2SM RA OVC004 05/05 A2967 RMK AO2 P0004 T00470047
cycle: 23

Station Type Date Time Source
KJOT TAF UTC NOAA

Error!


Example: see airport list